Time;durP1;ratioP1;P1;durP2;ratioP2;P2;SDS_P1;SDS_P2;PMS_P1;PMS_P2;Temp;Humidity;BMP_temperature;BMP_pressure;BME280_temperature;BME280_humidity;BME280_pressure;Samples;Min_cycle;Max_cycle;Signal;HPM_P1;HPM_P2
2021/11/17 02:28:13;;;;;;;42.27;21.67;;;;;;;;;;5037864;28;20193;-78
2021/11/17 02:30:45;;;;;;;48.37;22.40;;;;;;;;;;5038038;28;20195;-78
2021/11/17 02:33:16;;;;;;;51.77;22.80;;;;;;;;;;5036367;28;20697;-79
2021/11/17 02:36:05;;;;;;;49.20;22.87;;;;;;;;;;5038134;28;20181;-78
2021/11/17 02:38:36;;;;;;;50.20;23.20;;;;;;;;;;5048087;28;20190;-75
2021/11/17 02:41:08;;;;;;;45.70;21.53;;;;;;;;;;5039503;28;20214;-76
2021/11/17 02:43:34;;;;;;;45.00;22.20;;;;;;;;;;5036175;28;20201;-76
2021/11/17 02:46:02;;;;;;;43.73;20.17;;;;;;;;;;5038282;28;20541;-77
2021/11/17 02:48:34;;;;;;;44.17;22.47;;;;;;;;;;5040569;28;20631;-76
2021/11/17 02:51:08;;;;;;;44.67;21.00;;;;;;;;;;5040784;28;20235;-76
2021/11/17 02:53:52;;;;;;;43.27;20.23;;;;;;;;;;5039681;28;20197;-76
2021/11/17 02:56:20;;;;;;;46.63;20.00;;;;;;;;;;5044244;28;20206;-76
2021/11/17 02:58:45;;;;;;;45.87;20.97;;;;;;;;;;5038650;28;20773;-75
2021/11/17 03:01:24;;;;;;;42.03;20.00;;;;;;;;;;5040254;28;20199;-75
2021/11/17 03:04:01;;;;;;;43.13;20.27;;;;;;;;;;5039420;28;20253;-78
2021/11/17 03:06:42;;;;;;;44.83;20.40;;;;;;;;;;5038810;28;20166;-75
2021/11/17 03:09:09;;;;;;;42.37;21.07;;;;;;;;;;5045759;28;20260;-76
2021/11/17 03:11:44;;;;;;;48.10;21.43;;;;;;;;;;5045043;28;20205;-77
2021/11/17 03:14:29;;;;;;;44.60;21.37;;;;;;;;;;5040885;28;20571;-76
2021/11/17 03:17:03;;;;;;;41.30;20.20;;;;;;;;;;5042784;28;20221;-77
2021/11/17 03:19:38;;;;;;;43.00;20.40;;;;;;;;;;5043575;28;20185;-77
2021/11/17 03:22:10;;;;;;;47.77;21.10;;;;;;;;;;5058261;28;20231;-79
2021/11/17 03:24:54;;;;;;;41.50;20.90;;;;;;;;;;5038710;28;20197;-75
2021/11/17 03:27:20;;;;;;;45.87;20.40;;;;;;;;;;5040348;28;20174;-74
2021/11/17 03:29:45;;;;;;;50.70;21.33;;;;;;;;;;5043708;28;20174;-77
2021/11/17 03:32:29;;;;;;;44.83;21.98;;;;;;;;;;5043419;28;20177;-76
2021/11/17 03:34:54;;;;;;;44.50;19.97;;;;;;;;;;5041021;28;20193;-76
2021/11/17 03:37:35;;;;;;;40.10;19.90;;;;;;;;;;5040418;28;20543;-78
2021/11/17 03:40:20;;;;;;;45.60;19.70;;;;;;;;;;5040112;28;20269;-78
2021/11/17 03:42:45;;;;;;;45.43;19.27;;;;;;;;;;5038263;28;20168;-77
2021/11/17 03:45:10;;;;;;;47.10;19.37;;;;;;;;;;5042399;28;20332;-78
2021/11/17 03:47:40;;;;;;;45.00;20.97;;;;;;;;;;5048348;28;20212;-75
2021/11/17 03:50:05;;;;;;;41.50;20.47;;;;;;;;;;5044572;28;20178;-75
2021/11/17 03:52:30;;;;;;;43.67;20.30;;;;;;;;;;5039818;28;20645;-75
2021/11/17 03:55:11;;;;;;;46.72;20.75;;;;;;;;;;5044874;28;20197;-75
2021/11/17 03:57:36;;;;;;;44.33;19.77;;;;;;;;;;5043597;28;20680;-75
2021/11/17 04:00:14;;;;;;;45.47;20.77;;;;;;;;;;5041642;28;20182;-75
2021/11/17 04:03:04;;;;;;;43.67;20.23;;;;;;;;;;5039164;28;20677;-76
2021/11/17 04:05:30;;;;;;;42.67;18.97;;;;;;;;;;5034514;28;20281;-75
2021/11/17 04:07:58;;;;;;;43.47;20.13;;;;;;;;;;5038591;28;20260;-76
2021/11/17 04:10:38;;;;;;;40.90;20.07;;;;;;;;;;5041606;28;20485;-75
2021/11/17 04:13:12;;;;;;;41.00;18.77;;;;;;;;;;5039727;28;20244;-75
2021/11/17 04:15:37;;;;;;;43.67;19.07;;;;;;;;;;5044837;28;20470;-75
2021/11/17 04:18:27;;;;;;;47.70;20.25;;;;;;;;;;5048013;28;20209;-76
2021/11/17 04:21:05;;;;;;;47.60;20.63;;;;;;;;;;5060299;28;20205;-75
2021/11/17 04:23:33;;;;;;;48.17;19.00;;;;;;;;;;5042621;28;20266;-75
2021/11/17 04:26:01;;;;;;;42.10;19.53;;;;;;;;;;5039389;28;20194;-75
2021/11/17 04:28:35;;;;;;;46.90;20.20;;;;;;;;;;5038364;28;20177;-75
2021/11/17 04:31:19;;;;;;;46.83;19.83;;;;;;;;;;5039252;28;20194;-75
2021/11/17 04:33:44;;;;;;;47.83;19.33;;;;;;;;;;5038094;28;20205;-80
2021/11/17 04:36:16;;;;;;;45.13;20.87;;;;;;;;;;5047404;28;20264;-75
2021/11/17 04:38:44;;;;;;;48.60;20.53;;;;;;;;;;5042082;28;20185;-75
2021/11/17 04:41:12;;;;;;;46.93;19.03;;;;;;;;;;5041183;28;20301;-75
2021/11/17 04:43:37;;;;;;;43.07;19.00;;;;;;;;;;5038693;28;20205;-76
2021/11/17 04:46:02;;;;;;;44.17;19.95;;;;;;;;;;5046451;28;20174;-76
2021/11/17 04:48:34;;;;;;;49.95;19.80;;;;;;;;;;5039744;28;20229;-76
2021/11/17 04:51:18;;;;;;;48.17;20.40;;;;;;;;;;5038103;28;20183;-76
2021/11/17 04:53:43;;;;;;;52.60;23.63;;;;;;;;;;5046620;28;20246;-77
2021/11/17 04:56:24;;;;;;;45.67;20.55;;;;;;;;;;5050580;28;20181;-76
2021/11/17 04:58:49;;;;;;;55.23;21.03;;;;;;;;;;5048898;28;20178;-76
2021/11/17 05:01:21;;;;;;;49.50;22.20;;;;;;;;;;5046753;28;20200;-77
2021/11/17 05:03:58;;;;;;;53.17;22.90;;;;;;;;;;5038422;28;20198;-77
2021/11/17 05:06:35;;;;;;;47.67;21.20;;;;;;;;;;5049191;28;20525;-76
2021/11/17 05:09:01;;;;;;;48.70;21.20;;;;;;;;;;5047591;28;20652;-76
2021/11/17 05:11:39;;;;;;;50.70;21.30;;;;;;;;;;5049265;28;20201;-77
2021/11/17 05:14:10;;;;;;;55.07;22.43;;;;;;;;;;5034170;28;20202;-77
2021/11/17 05:16:35;;;;;;;47.33;22.20;;;;;;;;;;5048068;28;20677;-77
2021/11/17 05:19:10;;;;;;;47.97;21.73;;;;;;;;;;5048539;28;20193;-77
2021/11/17 05:22:10;;;;;;;52.20;21.67;;;;;;;;;;5050374;28;20697;-76
2021/11/17 05:24:35;;;;;;;47.10;21.43;;;;;;;;;;5022501;28;20206;-76
2021/11/17 05:27:17;;;;;;;47.47;22.30;;;;;;;;;;5029475;28;20663;-76
2021/11/17 05:29:51;;;;;;;57.00;22.93;;;;;;;;;;5053198;28;20185;-77
2021/11/17 05:32:25;;;;;;;46.73;22.50;;;;;;;;;;5040794;28;20535;-76
2021/11/17 05:35:00;;;;;;;52.27;22.47;;;;;;;;;;5041751;28;20826;-77
2021/11/17 05:37:37;;;;;;;48.10;22.23;;;;;;;;;;5048013;28;20224;-76
2021/11/17 05:40:03;;;;;;;50.80;24.23;;;;;;;;;;5056473;28;20225;-76
2021/11/17 05:42:40;;;;;;;57.57;25.63;;;;;;;;;;5039741;28;20201;-76
2021/11/17 05:45:21;;;;;;;50.77;22.33;;;;;;;;;;5034495;28;20292;-77
2021/11/17 05:47:59;;;;;;;53.67;22.77;;;;;;;;;;5037365;28;20256;-76
2021/11/17 05:50:34;;;;;;;58.00;24.10;;;;;;;;;;5040680;28;20254;-77
2021/11/17 05:52:59;;;;;;;54.50;24.47;;;;;;;;;;5038059;28;20177;-79
2021/11/17 05:55:42;;;;;;;47.63;22.17;;;;;;;;;;5036086;28;20193;-76
2021/11/17 05:58:46;;;;;;;49.33;23.87;;;;;;;;;;5045292;28;20674;-76
2021/11/17 06:01:17;;;;;;;47.37;21.83;;;;;;;;;;5017237;28;20248;-76
2021/11/17 06:03:55;;;;;;;46.07;21.80;;;;;;;;;;5015942;28;20292;-76
2021/11/17 06:06:22;;;;;;;46.47;22.67;;;;;;;;;;5035086;28;20188;-76
2021/11/17 06:08:47;;;;;;;56.10;23.80;;;;;;;;;;5037545;28;20239;-76
2021/11/17 06:11:12;;;;;;;52.40;25.10;;;;;;;;;;5041069;28;20177;-76
2021/11/17 06:13:37;;;;;;;49.33;23.50;;;;;;;;;;5037112;28;20442;-76
2021/11/17 06:16:03;;;;;;;53.03;24.07;;;;;;;;;;5042314;28;20272;-76
2021/11/17 06:18:30;;;;;;;53.83;24.03;;;;;;;;;;5038593;28;20213;-76
2021/11/17 06:20:56;;;;;;;51.20;23.53;;;;;;;;;;5039099;28;20220;-77
2021/11/17 06:23:40;;;;;;;56.27;24.37;;;;;;;;;;5036840;28;20655;-78
2021/11/17 06:26:07;;;;;;;54.23;25.27;;;;;;;;;;5031432;28;20178;-75
2021/11/17 06:28:33;;;;;;;51.20;23.10;;;;;;;;;;5033011;28;20199;-77
2021/11/17 06:30:58;;;;;;;51.97;24.40;;;;;;;;;;5038019;28;20186;-76
2021/11/17 06:33:24;;;;;;;52.97;24.87;;;;;;;;;;5037656;28;20194;-76
2021/11/17 06:35:49;;;;;;;55.80;24.07;;;;;;;;;;5034839;28;20178;-75
2021/11/17 06:38:17;;;;;;;55.97;26.13;;;;;;;;;;5047052;28;20185;-76
2021/11/17 06:40:43;;;;;;;48.40;22.60;;;;;;;;;;5035710;28;20730;-77
2021/11/17 06:43:09;;;;;;;48.33;24.13;;;;;;;;;;5047006;28;20335;-74
2021/11/17 06:45:42;;;;;;;62.07;25.40;;;;;;;;;;5042836;28;20189;-77
2021/11/17 06:48:08;;;;;;;50.37;23.63;;;;;;;;;;5041910;28;20170;-78
2021/11/17 06:50:34;;;;;;;53.83;25.23;;;;;;;;;;5044520;28;20239;-75
2021/11/17 06:52:59;;;;;;;55.43;24.97;;;;;;;;;;5040196;28;20189;-76
2021/11/17 06:55:24;;;;;;;49.93;24.73;;;;;;;;;;5043908;28;20696;-77
2021/11/17 06:57:50;;;;;;;59.37;25.07;;;;;;;;;;5041007;28;20205;-78
2021/11/17 07:00:17;;;;;;;62.63;26.77;;;;;;;;;;5040529;28;20190;-76
2021/11/17 07:02:42;;;;;;;53.97;25.20;;;;;;;;;;5040740;28;20178;-77
2021/11/17 07:05:08;;;;;;;58.20;24.43;;;;;;;;;;5056909;28;20255;-77
2021/11/17 07:07:34;;;;;;;54.27;27.20;;;;;;;;;;5041250;28;20298;-76
2021/11/17 07:09:59;;;;;;;59.47;26.53;;;;;;;;;;5046929;28;20198;-76
2021/11/17 07:12:24;;;;;;;55.57;26.17;;;;;;;;;;5041984;28;20516;-77
2021/11/17 07:14:49;;;;;;;58.27;28.27;;;;;;;;;;5039920;28;20200;-76
2021/11/17 07:17:15;;;;;;;55.63;25.90;;;;;;;;;;5043189;28;20192;-76
2021/11/17 07:19:40;;;;;;;56.73;26.10;;;;;;;;;;5039607;28;20691;-76
2021/11/17 07:22:07;;;;;;;53.10;25.27;;;;;;;;;;5040936;28;20655;-79
2021/11/17 07:24:33;;;;;;;59.57;28.07;;;;;;;;;;5042747;28;20205;-77
2021/11/17 07:26:58;;;;;;;59.00;26.73;;;;;;;;;;5043151;28;20295;-76
2021/11/17 07:29:24;;;;;;;56.90;27.27;;;;;;;;;;5043293;28;20647;-77
2021/11/17 07:31:49;;;;;;;64.63;27.93;;;;;;;;;;5043682;28;20181;-74
2021/11/17 07:34:15;;;;;;;68.43;30.23;;;;;;;;;;5043735;28;20675;-75
2021/11/17 07:36:41;;;;;;;64.20;28.07;;;;;;;;;;5045252;28;20401;-78
2021/11/17 07:39:08;;;;;;;71.33;29.63;;;;;;;;;;5041418;28;20178;-78
2021/11/17 07:41:33;;;;;;;64.67;29.37;;;;;;;;;;5040530;28;20194;-77
2021/11/17 07:43:58;;;;;;;70.63;31.57;;;;;;;;;;5047535;28;20299;-77
2021/11/17 07:46:23;;;;;;;66.20;31.13;;;;;;;;;;5045206;28;20230;-76
2021/11/17 07:48:49;;;;;;;72.80;32.13;;;;;;;;;;5041110;28;20185;-77
2021/11/17 07:51:15;;;;;;;70.10;31.40;;;;;;;;;;5044768;28;20260;-75
2021/11/17 07:53:41;;;;;;;78.10;30.97;;;;;;;;;;5046979;28;20247;-76
2021/11/17 07:56:06;;;;;;;75.00;33.10;;;;;;;;;;5040402;28;20612;-76
2021/11/17 07:58:33;;;;;;;72.27;32.07;;;;;;;;;;5037707;28;20276;-77
2021/11/17 08:00:59;;;;;;;82.23;32.10;;;;;;;;;;5042705;28;20225;-76
2021/11/17 08:03:26;;;;;;;76.10;32.30;;;;;;;;;;5042975;28;20224;-77
2021/11/17 08:05:52;;;;;;;79.90;34.40;;;;;;;;;;5040181;28;22057;-75
2021/11/17 08:08:18;;;;;;;78.27;34.27;;;;;;;;;;5047163;28;20185;-78
2021/11/17 08:10:44;;;;;;;74.73;31.80;;;;;;;;;;5045877;28;20265;-75
2021/11/17 08:13:09;;;;;;;81.07;32.43;;;;;;;;;;5042556;28;20264;-80
2021/11/17 08:15:34;;;;;;;72.10;30.93;;;;;;;;;;5046316;28;20213;-76
2021/11/17 08:18:00;;;;;;;73.47;31.80;;;;;;;;;;5042006;28;20177;-76
2021/11/17 08:20:25;;;;;;;70.87;31.70;;;;;;;;;;5043170;28;20272;-76
2021/11/17 08:22:52;;;;;;;74.80;31.93;;;;;;;;;;5045065;28;20791;-76
2021/11/17 08:25:18;;;;;;;77.27;33.70;;;;;;;;;;5047221;28;20196;-76
2021/11/17 08:27:43;;;;;;;75.23;31.80;;;;;;;;;;5041487;28;22080;-76
2021/11/17 08:30:10;;;;;;;81.83;35.30;;;;;;;;;;5041683;28;20240;-77
2021/11/17 08:32:36;;;;;;;82.57;33.57;;;;;;;;;;5038817;28;20655;-75
2021/11/17 08:35:02;;;;;;;76.63;31.80;;;;;;;;;;5033285;28;20197;-75
2021/11/17 08:37:31;;;;;;;71.47;33.37;;;;;;;;;;5042819;28;20188;-78
2021/11/17 08:39:56;;;;;;;72.30;32.13;;;;;;;;;;5047431;28;20178;-78
2021/11/17 08:42:22;;;;;;;71.17;30.47;;;;;;;;;;5043621;28;20925;-77
2021/11/17 08:44:47;;;;;;;68.90;31.50;;;;;;;;;;5048361;22;20234;-74
2021/11/17 08:47:14;;;;;;;72.20;33.30;;;;;;;;;;5026690;28;20214;-73
2021/11/17 08:49:40;;;;;;;82.53;32.33;;;;;;;;;;5021373;28;20652;-75
2021/11/17 08:52:06;;;;;;;81.77;31.77;;;;;;;;;;5021578;28;20269;-72
2021/11/17 08:54:31;;;;;;;80.80;32.60;;;;;;;;;;5022510;28;20214;-73
2021/11/17 08:56:58;;;;;;;72.60;31.40;;;;;;;;;;5026270;28;20186;-72
2021/11/17 08:59:24;;;;;;;67.73;30.53;;;;;;;;;;5018950;28;20448;-72
2021/11/17 09:01:49;;;;;;;74.83;33.77;;;;;;;;;;5015420;28;20206;-72
2021/11/17 09:04:14;;;;;;;77.07;32.20;;;;;;;;;;5024339;28;20595;-72
2021/11/17 09:06:40;;;;;;;71.10;31.00;;;;;;;;;;5021464;28;20185;-72
2021/11/17 09:09:06;;;;;;;71.07;32.60;;;;;;;;;;5022382;28;20257;-71
2021/11/17 09:11:32;;;;;;;66.23;31.50;;;;;;;;;;5021567;28;20304;-73
2021/11/17 09:13:57;;;;;;;73.47;33.90;;;;;;;;;;5023242;28;20305;-72
2021/11/17 09:16:22;;;;;;;70.47;31.80;;;;;;;;;;5022316;28;20183;-73
2021/11/17 09:18:50;;;;;;;66.40;30.00;;;;;;;;;;5019810;28;20182;-71
2021/11/17 09:21:17;;;;;;;71.60;35.30;;;;;;;;;;5017327;28;20213;-71
2021/11/17 09:23:43;;;;;;;66.97;33.20;;;;;;;;;;5019048;28;20184;-71
2021/11/17 09:26:08;;;;;;;62.57;32.83;;;;;;;;;;5033879;28;20189;-74
2021/11/17 09:28:34;;;;;;;61.10;29.23;;;;;;;;;;5020295;28;20182;-74
2021/11/17 09:31:00;;;;;;;68.73;31.27;;;;;;;;;;5021579;28;20676;-72
2021/11/17 09:33:25;;;;;;;63.00;30.43;;;;;;;;;;5022800;28;20261;-71
2021/11/17 09:35:50;;;;;;;63.10;29.53;;;;;;;;;;5022403;28;20216;-71
2021/11/17 09:38:16;;;;;;;63.80;29.70;;;;;;;;;;5020096;28;20575;-72
2021/11/17 09:40:55;;;;;;;65.43;31.23;;;;;;;;;;5022266;28;20667;-71
2021/11/17 09:43:26;;;;;;;59.37;28.30;;;;;;;;;;5025332;28;20174;-71
2021/11/17 09:45:52;;;;;;;59.33;27.77;;;;;;;;;;5018352;28;20216;-72
2021/11/17 09:48:19;;;;;;;55.07;28.60;;;;;;;;;;5019668;28;20178;-72
2021/11/17 09:50:45;;;;;;;61.43;31.60;;;;;;;;;;5017732;28;20425;-71
2021/11/17 09:53:13;;;;;;;54.50;28.40;;;;;;;;;;5026592;28;20231;-72
2021/11/17 09:55:42;;;;;;;56.27;28.60;;;;;;;;;;5020709;28;20463;-73
2021/11/17 09:58:29;;;;;;;58.30;28.60;;;;;;;;;;5035284;28;20194;-73
2021/11/17 10:01:05;;;;;;;63.47;31.53;;;;;;;;;;5019429;28;20206;-71
2021/11/17 10:03:45;;;;;;;57.20;27.97;;;;;;;;;;5025659;28;20236;-74
2021/11/17 10:09:26;;;;;;;59.13;29.03;;;;;;;;;;5022583;28;20185;-74
2021/11/17 10:12:49;;;;;;;55.30;27.50;;;;;;;;;;5023085;28;20656;-72
2021/11/17 10:15:03;;;;;;;53.53;27.93;;;;;;;;;;5022418;28;20209;-73
2021/11/17 10:17:31;;;;;;;55.03;27.23;;;;;;;;;;5036743;28;20182;-72
2021/11/17 10:20:08;;;;;;;55.00;28.50;;;;;;;;;;5021064;28;20738;-72
2021/11/17 10:22:34;;;;;;;47.23;25.87;;;;;;;;;;5016429;28;20218;-72
2021/11/17 10:25:11;;;;;;;46.20;24.80;;;;;;;;;;5021844;28;20204;-75
2021/11/17 10:27:36;;;;;;;46.53;26.43;;;;;;;;;;5021215;28;20239;-73
2021/11/17 10:30:08;;;;;;;49.80;27.80;;;;;;;;;;5041603;28;20241;-73
2021/11/17 10:32:36;;;;;;;46.70;24.60;;;;;;;;;;5034248;28;20185;-74
2021/11/17 10:35:12;;;;;;;41.33;23.15;;;;;;;;;;5023112;28;20201;-72
2021/11/17 10:37:40;;;;;;;40.47;23.97;;;;;;;;;;5025271;28;20186;-72
2021/11/17 10:40:11;;;;;;;45.37;23.67;;;;;;;;;;5021658;28;20186;-72
2021/11/17 10:42:37;;;;;;;41.63;25.50;;;;;;;;;;5018763;28;20265;-72
2021/11/17 10:45:09;;;;;;;45.17;23.47;;;;;;;;;;5021321;28;20286;-73
2021/11/17 10:47:36;;;;;;;42.78;24.08;;;;;;;;;;5020266;28;20660;-74
2021/11/17 10:50:04;;;;;;;40.17;23.50;;;;;;;;;;5021176;28;20178;-73
2021/11/17 10:52:32;;;;;;;40.50;24.87;;;;;;;;;;5017627;28;20563;-73
2021/11/17 10:54:58;;;;;;;45.55;24.80;;;;;;;;;;5019148;28;20267;-74
2021/11/17 10:57:25;;;;;;;37.95;21.20;;;;;;;;;;5010233;28;20197;-73
2021/11/17 10:59:51;;;;;;;39.65;22.35;;;;;;;;;;5019504;28;20647;-73
2021/11/17 11:02:17;;;;;;;36.25;20.27;;;;;;;;;;5018021;28;20247;-74
2021/11/17 11:04:51;;;;;;;35.85;20.60;;;;;;;;;;5028309;28;20243;-72
2021/11/17 11:07:28;;;;;;;34.53;19.50;;;;;;;;;;5017393;28;20179;-76
2021/11/17 11:10:08;;;;;;;36.35;20.38;;;;;;;;;;5022815;28;20271;-73
2021/11/17 11:12:34;;;;;;;30.80;18.92;;;;;;;;;;5025206;28;20196;-73
2021/11/17 11:15:02;;;;;;;30.88;19.92;;;;;;;;;;5020679;28;20201;-72
2021/11/17 11:17:30;;;;;;;26.35;16.05;;;;;;;;;;5027493;28;20178;-72
2021/11/17 11:20:14;;;;;;;25.33;15.60;;;;;;;;;;5010436;28;20690;-73
2021/11/17 11:22:59;;;;;;;21.48;12.57;;;;;;;;;;5020621;28;20206;-73
2021/11/17 11:25:43;;;;;;;19.30;10.57;;;;;;;;;;5009521;28;20202;-73
2021/11/17 11:28:21;;;;;;;16.95;9.70;;;;;;;;;;5022350;28;20181;-72
2021/11/17 11:31:07;;;;;;;13.32;5.78;;;;;;;;;;5023810;28;20182;-72
2021/11/17 11:33:37;;;;;;;13.35;4.40;;;;;;;;;;5022940;28;20182;-73
2021/11/17 11:36:12;;;;;;;13.73;3.90;;;;;;;;;;5026347;28;20219;-73
2021/11/17 11:38:49;;;;;;;14.82;3.00;;;;;;;;;;5019118;28;20177;-73
2021/11/17 11:41:17;;;;;;;18.38;5.18;;;;;;;;;;5024343;28;20221;-74
2021/11/17 11:43:44;;;;;;;14.50;4.05;;;;;;;;;;5023444;28;20183;-72
2021/11/17 11:46:18;;;;;;;9.43;3.05;;;;;;;;;;5024884;28;20676;-73
2021/11/17 11:48:44;;;;;;;11.85;3.05;;;;;;;;;;5023985;28;20269;-73
2021/11/17 11:51:21;;;;;;;10.63;2.85;;;;;;;;;;5022965;28;20265;-74
2021/11/17 11:53:55;;;;;;;10.90;3.63;;;;;;;;;;5019497;28;20869;-73
2021/11/17 11:56:25;;;;;;;21.30;5.97;;;;;;;;;;5018526;28;20685;-72
2021/11/17 11:58:59;;;;;;;9.50;2.90;;;;;;;;;;5020902;28;20277;-74
2021/11/17 12:01:25;;;;;;;12.65;3.00;;;;;;;;;;5026127;28;20217;-72
2021/11/17 12:03:56;;;;;;;16.65;4.43;;;;;;;;;;5031053;28;20193;-72
2021/11/17 12:06:26;;;;;;;13.80;3.83;;;;;;;;;;5029202;28;20298;-75
2021/11/17 12:08:51;;;;;;;16.00;3.47;;;;;;;;;;5021310;28;20178;-72
2021/11/17 12:11:21;;;;;;;12.10;3.40;;;;;;;;;;5028652;28;20236;-74
2021/11/17 12:13:58;;;;;;;12.68;4.25;;;;;;;;;;5028814;28;20443;-74
2021/11/17 12:16:29;;;;;;;13.75;3.35;;;;;;;;;;5031438;28;20437;-72
2021/11/17 12:18:56;;;;;;;15.90;3.67;;;;;;;;;;5026123;28;20190;-72
2021/11/17 12:21:27;;;;;;;9.10;2.55;;;;;;;;;;5031928;28;20297;-72
2021/11/17 12:24:13;;;;;;;13.35;4.25;;;;;;;;;;5020620;28;20194;-71
2021/11/17 12:26:40;;;;;;;15.40;3.42;;;;;;;;;;5033274;28;20182;-72
2021/11/17 12:29:11;;;;;;;17.00;4.63;;;;;;;;;;5022536;28;20587;-72
2021/11/17 12:31:48;;;;;;;12.70;3.83;;;;;;;;;;5025244;28;20279;-71
2021/11/17 12:34:36;;;;;;;18.90;3.70;;;;;;;;;;5023017;28;20289;-72
2021/11/17 12:37:04;;;;;;;19.88;4.07;;;;;;;;;;5022318;28;20217;-73
2021/11/17 12:39:47;;;;;;;16.35;4.22;;;;;;;;;;5027062;28;20186;-72
2021/11/17 12:42:12;;;;;;;12.13;3.25;;;;;;;;;;5020930;28;20214;-73
2021/11/17 12:44:44;;;;;;;15.77;3.85;;;;;;;;;;5025451;28;20305;-73
2021/11/17 12:47:11;;;;;;;16.80;3.72;;;;;;;;;;5019657;28;20652;-73
2021/11/17 12:49:39;;;;;;;18.00;5.20;;;;;;;;;;5025722;28;20187;-72
2021/11/17 12:52:04;;;;;;;9.35;2.58;;;;;;;;;;5021287;28;20190;-73
2021/11/17 12:54:35;;;;;;;12.63;3.15;;;;;;;;;;5020954;28;20700;-72
2021/11/17 12:57:04;;;;;;;13.77;3.30;;;;;;;;;;5018892;28;20217;-71
2021/11/17 12:59:36;;;;;;;11.35;4.13;;;;;;;;;;5020267;28;20662;-72
2021/11/17 13:02:04;;;;;;;16.48;4.18;;;;;;;;;;5016482;28;20202;-72
2021/11/17 13:04:35;;;;;;;15.13;3.35;;;;;;;;;;5025143;28;20204;-72
2021/11/17 13:07:03;;;;;;;16.15;3.53;;;;;;;;;;5022418;28;20625;-73
2021/11/17 13:09:31;;;;;;;20.73;4.03;;;;;;;;;;5028217;28;20186;-72
2021/11/17 13:11:59;;;;;;;13.13;3.20;;;;;;;;;;5018592;28;20188;-72
2021/11/17 13:14:30;;;;;;;15.02;3.22;;;;;;;;;;5023153;28;20198;-73
2021/11/17 13:17:01;;;;;;;16.85;3.47;;;;;;;;;;5023533;28;20190;-73
2021/11/17 13:19:32;;;;;;;11.30;3.33;;;;;;;;;;5026262;28;20259;-73
2021/11/17 13:21:59;;;;;;;16.70;3.37;;;;;;;;;;5026170;28;20271;-73
2021/11/17 13:24:29;;;;;;;9.60;2.50;;;;;;;;;;5021670;28;20926;-73
2021/11/17 13:27:07;;;;;;;11.38;2.95;;;;;;;;;;5024143;28;20899;-73
2021/11/17 13:29:51;;;;;;;20.42;4.07;;;;;;;;;;5015005;28;20174;-74
2021/11/17 13:32:18;;;;;;;9.18;2.53;;;;;;;;;;5016580;28;20182;-74
2021/11/17 13:34:51;;;;;;;8.73;2.65;;;;;;;;;;5017859;28;20210;-73
2021/11/17 13:37:32;;;;;;;20.02;2.67;;;;;;;;;;5022349;28;20187;-71
2021/11/17 13:39:58;;;;;;;16.07;2.70;;;;;;;;;;5027281;28;20224;-73
2021/11/17 13:42:24;;;;;;;12.57;3.33;;;;;;;;;;5023539;28;20205;-73
2021/11/17 13:44:50;;;;;;;10.90;4.10;;;;;;;;;;5025858;28;20218;-72
2021/11/17 13:47:17;;;;;;;15.03;3.30;;;;;;;;;;5020336;28;20587;-72
2021/11/17 13:49:44;;;;;;;13.07;3.17;;;;;;;;;;5025653;28;20201;-74
2021/11/17 13:52:10;;;;;;;15.57;3.95;;;;;;;;;;5025285;28;20186;-73
2021/11/17 13:54:35;;;;;;;22.00;4.97;;;;;;;;;;5026175;28;20703;-72
2021/11/17 13:57:03;;;;;;;10.50;3.28;;;;;;;;;;5025607;28;20178;-72
2021/11/17 13:59:29;;;;;;;13.77;2.83;;;;;;;;;;5020762;28;20182;-72
2021/11/17 14:01:56;;;;;;;7.78;2.40;;;;;;;;;;5022598;28;20198;-72
2021/11/17 14:04:22;;;;;;;11.45;3.30;;;;;;;;;;5025774;28;20798;-73
2021/11/17 14:06:48;;;;;;;20.85;4.15;;;;;;;;;;5023777;28;20178;-71
2021/11/17 14:09:13;;;;;;;10.98;3.08;;;;;;;;;;5027013;28;20244;-74
2021/11/17 14:11:39;;;;;;;11.80;3.00;;;;;;;;;;5038598;28;20178;-72
2021/11/17 14:14:04;;;;;;;7.37;2.47;;;;;;;;;;5041651;28;20264;-73
2021/11/17 14:16:29;;;;;;;10.70;2.77;;;;;;;;;;5021435;28;20314;-72
2021/11/17 14:18:54;;;;;;;12.27;3.37;;;;;;;;;;5026751;28;20186;-73
2021/11/17 14:21:21;;;;;;;10.85;2.38;;;;;;;;;;5023071;28;20201;-72
2021/11/17 14:23:46;;;;;;;14.75;2.72;;;;;;;;;;5027723;28;20669;-72
2021/11/17 14:26:14;;;;;;;11.10;2.87;;;;;;;;;;5022179;28;20197;-72
2021/11/17 14:28:41;;;;;;;9.30;2.23;;;;;;;;;;5016635;28;20182;-73
2021/11/17 14:31:14;;;;;;;7.78;2.08;;;;;;;;;;5020937;28;20574;-72
2021/11/17 14:33:40;;;;;;;11.77;3.28;;;;;;;;;;5018628;28;20313;-72
2021/11/17 14:36:10;;;;;;;11.55;3.33;;;;;;;;;;5021891;28;20213;-74
2021/11/17 14:38:35;;;;;;;14.93;4.32;;;;;;;;;;5023730;28;20247;-72
2021/11/17 14:41:01;;;;;;;13.65;4.00;;;;;;;;;;5019310;28;20589;-75
2021/11/17 14:43:26;;;;;;;12.10;4.47;;;;;;;;;;5025204;28;20206;-73
2021/11/17 14:45:52;;;;;;;14.07;3.33;;;;;;;;;;5038190;23;20258;-76
2021/11/17 14:48:18;;;;;;;11.77;3.00;;;;;;;;;;5020240;28;20194;-77
2021/11/17 14:50:44;;;;;;;10.15;3.20;;;;;;;;;;5023846;28;20182;-77
2021/11/17 14:53:11;;;;;;;9.23;3.05;;;;;;;;;;5025809;28;20674;-76
2021/11/17 14:55:36;;;;;;;16.50;2.97;;;;;;;;;;5023299;28;20321;-77
2021/11/17 14:58:01;;;;;;;13.98;2.70;;;;;;;;;;5020149;28;20654;-77
2021/11/17 15:00:29;;;;;;;16.77;2.73;;;;;;;;;;5018180;28;20569;-79
2021/11/17 15:02:55;;;;;;;17.47;2.97;;;;;;;;;;5024490;28;20175;-79
2021/11/17 15:05:21;;;;;;;15.00;3.73;;;;;;;;;;5031414;28;20717;-77
2021/11/17 15:07:46;;;;;;;10.63;2.90;;;;;;;;;;5022891;28;20175;-76
2021/11/17 15:10:12;;;;;;;11.53;3.10;;;;;;;;;;5027498;28;20200;-77
2021/11/17 15:12:38;;;;;;;14.43;3.97;;;;;;;;;;5028986;28;20673;-78
2021/11/17 15:15:07;;;;;;;9.17;3.90;;;;;;;;;;5029019;28;20208;-77
2021/11/17 15:17:32;;;;;;;11.43;3.50;;;;;;;;;;5027176;28;20182;-80
2021/11/17 15:19:57;;;;;;;13.57;2.43;;;;;;;;;;5038377;28;20746;-79
2021/11/17 15:22:24;;;;;;;15.93;2.90;;;;;;;;;;5028456;28;20206;-77
2021/11/17 15:24:49;;;;;;;14.70;2.60;;;;;;;;;;5024968;28;21748;-77
2021/11/17 15:27:24;;;;;;;12.57;3.23;;;;;;;;;;5025225;28;20184;-77
2021/11/17 15:29:49;;;;;;;10.77;2.83;;;;;;;;;;5027186;28;20639;-77
2021/11/17 15:32:18;;;;;;;13.90;3.57;;;;;;;;;;5022535;28;20187;-77
2021/11/17 15:34:43;;;;;;;10.80;3.20;;;;;;;;;;5024951;28;20206;-77
2021/11/17 15:37:08;;;;;;;9.23;3.17;;;;;;;;;;5030870;28;20189;-77
2021/11/17 15:39:33;;;;;;;10.13;3.40;;;;;;;;;;5028890;28;20182;-77
2021/11/17 15:41:59;;;;;;;15.60;4.10;;;;;;;;;;5029005;28;20278;-77
2021/11/17 15:44:24;;;;;;;11.97;2.63;;;;;;;;;;5024132;28;20202;-76
2021/11/17 15:46:54;;;;;;;11.80;2.70;;;;;;;;;;5027594;28;20210;-76
2021/11/17 15:49:19;;;;;;;15.90;3.07;;;;;;;;;;5029733;28;20182;-77
2021/11/17 15:51:47;;;;;;;11.23;3.30;;;;;;;;;;5027171;28;20272;-76
2021/11/17 15:54:12;;;;;;;12.87;3.53;;;;;;;;;;5029996;28;20231;-81
2021/11/17 15:56:38;;;;;;;15.00;3.30;;;;;;;;;;5024081;28;20199;-78
2021/11/17 15:59:04;;;;;;;11.70;3.20;;;;;;;;;;5025880;28;20243;-79
2021/11/17 16:01:29;;;;;;;12.13;3.90;;;;;;;;;;5027616;28;20210;-76
2021/11/17 16:03:55;;;;;;;19.03;3.47;;;;;;;;;;5025685;28;20175;-78
2021/11/17 16:06:22;;;;;;;9.10;2.97;;;;;;;;;;5023193;28;20206;-77
2021/11/17 16:08:47;;;;;;;12.20;2.80;;;;;;;;;;5029007;28;20650;-77
2021/11/17 16:11:12;;;;;;;17.70;4.93;;;;;;;;;;5024889;28;20225;-76
2021/11/17 16:13:38;;;;;;;14.17;4.03;;;;;;;;;;5024674;28;20178;-77
2021/11/17 16:16:03;;;;;;;14.87;3.70;;;;;;;;;;5032989;28;20237;-78
2021/11/17 16:18:29;;;;;;;13.90;3.97;;;;;;;;;;5024130;28;20190;-80
2021/11/17 16:20:58;;;;;;;10.17;3.00;;;;;;;;;;5027204;28;20586;-77
2021/11/17 16:25:52;;;;;;;12.67;3.10;;;;;;;;;;5023582;28;20202;-77
2021/11/17 16:28:22;;;;;;;7.73;3.10;;;;;;;;;;5021920;28;20186;-79
2021/11/17 16:30:48;;;;;;;13.53;4.03;;;;;;;;;;5019059;28;20187;-77
2021/11/17 16:33:15;;;;;;;19.63;4.60;;;;;;;;;;5022609;28;20183;-77
2021/11/17 16:35:40;;;;;;;10.67;3.40;;;;;;;;;;5038365;28;20207;-77
2021/11/17 16:38:06;;;;;;;17.20;3.87;;;;;;;;;;5029812;28;20189;-76
2021/11/17 16:40:33;;;;;;;8.80;3.03;;;;;;;;;;5022041;28;20874;-77
2021/11/17 16:42:59;;;;;;;14.93;4.03;;;;;;;;;;5027118;28;20178;-78
2021/11/17 16:45:24;;;;;;;8.57;3.90;;;;;;;;;;5027035;28;20214;-77
2021/11/17 16:47:50;;;;;;;17.50;5.83;;;;;;;;;;5025272;28;20562;-78
2021/11/17 16:50:16;;;;;;;16.80;4.90;;;;;;;;;;5021144;28;20626;-76
2021/11/17 16:52:44;;;;;;;10.00;3.07;;;;;;;;;;5022117;28;20190;-77
2021/11/17 16:55:14;;;;;;;10.27;3.30;;;;;;;;;;5021615;28;20336;-76
2021/11/17 16:57:41;;;;;;;13.80;3.40;;;;;;;;;;5028107;28;20186;-76
2021/11/17 17:00:08;;;;;;;10.63;3.43;;;;;;;;;;5025428;28;20190;-78
2021/11/17 17:02:33;;;;;;;14.40;4.60;;;;;;;;;;5019633;28;20218;-76
2021/11/17 17:04:58;;;;;;;12.70;3.50;;;;;;;;;;5022239;28;20331;-78
2021/11/17 17:07:24;;;;;;;10.57;3.63;;;;;;;;;;5023785;28;20555;-76
2021/11/17 17:09:50;;;;;;;14.93;6.50;;;;;;;;;;5021955;28;20763;-76